sensor_id;sensor_type;location;lat;lon;timestamp;temperature;humidity
52189;DHT22;38162;45.926;13.608;2023-03-14T00:01:17;12.60;93.40
52189;DHT22;38162;45.926;13.608;2023-03-14T00:03:43;12.60;93.70
52189;DHT22;38162;45.926;13.608;2023-03-14T00:06:10;12.60;94.10
52189;DHT22;38162;45.926;13.608;2023-03-14T00:08:36;12.60;94.20
52189;DHT22;38162;45.926;13.608;2023-03-14T00:11:27;12.60;94.40
52189;DHT22;38162;45.926;13.608;2023-03-14T00:13:53;12.60;94.30
52189;DHT22;38162;45.926;13.608;2023-03-14T00:16:19;12.60;94.40
52189;DHT22;38162;45.926;13.608;2023-03-14T00:18:45;12.50;94.90
52189;DHT22;38162;45.926;13.608;2023-03-14T00:21:11;12.50;95.10
52189;DHT22;38162;45.926;13.608;2023-03-14T00:23:39;12.50;95.40
52189;DHT22;38162;45.926;13.608;2023-03-14T00:26:19;12.50;95.40
52189;DHT22;38162;45.926;13.608;2023-03-14T00:28:45;12.50;95.50
52189;DHT22;38162;45.926;13.608;2023-03-14T00:31:13;12.50;95.70
52189;DHT22;38162;45.926;13.608;2023-03-14T00:33:39;12.50;95.70
52189;DHT22;38162;45.926;13.608;2023-03-14T00:36:11;12.50;95.90
52189;DHT22;38162;45.926;13.608;2023-03-14T00:38:39;12.50;96.10
52189;DHT22;38162;45.926;13.608;2023-03-14T00:41:10;12.50;96.10
52189;DHT22;38162;45.926;13.608;2023-03-14T00:43:36;12.40;96.10
52189;DHT22;38162;45.926;13.608;2023-03-14T00:46:02;12.50;96.30
52189;DHT22;38162;45.926;13.608;2023-03-14T00:48:28;12.40;96.40
52189;DHT22;38162;45.926;13.608;2023-03-14T00:50:54;12.50;96.40
52189;DHT22;38162;45.926;13.608;2023-03-14T00:53:20;12.40;96.50
52189;DHT22;38162;45.926;13.608;2023-03-14T00:55:46;12.40;96.70
52189;DHT22;38162;45.926;13.608;2023-03-14T00:58:13;12.40;96.80
52189;DHT22;38162;45.926;13.608;2023-03-14T01:00:40;12.50;97.20
52189;DHT22;38162;45.926;13.608;2023-03-14T01:03:07;12.40;97.30
52189;DHT22;38162;45.926;13.608;2023-03-14T01:05:33;12.50;97.50
52189;DHT22;38162;45.926;13.608;2023-03-14T01:07:58;12.40;97.50
52189;DHT22;38162;45.926;13.608;2023-03-14T01:10:24;12.50;97.50
52189;DHT22;38162;45.926;13.608;2023-03-14T01:12:50;12.40;97.70
52189;DHT22;38162;45.926;13.608;2023-03-14T01:15:16;12.40;97.70
52189;DHT22;38162;45.926;13.608;2023-03-14T01:17:41;12.40;97.70
52189;DHT22;38162;45.926;13.608;2023-03-14T01:20:10;12.40;97.60
52189;DHT22;38162;45.926;13.608;2023-03-14T01:22:36;12.40;97.80
52189;DHT22;38162;45.926;13.608;2023-03-14T01:25:06;12.40;97.50
52189;DHT22;38162;45.926;13.608;2023-03-14T01:27:32;12.40;97.50
52189;DHT22;38162;45.926;13.608;2023-03-14T01:29:58;12.40;97.60
52189;DHT22;38162;45.926;13.608;2023-03-14T01:32:24;12.40;97.60
52189;DHT22;38162;45.926;13.608;2023-03-14T01:34:50;12.40;97.50
52189;DHT22;38162;45.926;13.608;2023-03-14T01:37:16;12.40;97.60
52189;DHT22;38162;45.926;13.608;2023-03-14T01:39:42;12.40;97.80
52189;DHT22;38162;45.926;13.608;2023-03-14T01:42:07;12.30;97.80
52189;DHT22;38162;45.926;13.608;2023-03-14T01:44:57;12.40;97.80
52189;DHT22;38162;45.926;13.608;2023-03-14T01:47:24;12.40;98.20
52189;DHT22;38162;45.926;13.608;2023-03-14T01:49:55;12.30;97.90
52189;DHT22;38162;45.926;13.608;2023-03-14T01:52:27;12.40;98.00
52189;DHT22;38162;45.926;13.608;2023-03-14T01:54:56;12.40;98.00
52189;DHT22;38162;45.926;13.608;2023-03-14T01:57:51;12.30;97.90
52189;DHT22;38162;45.926;13.608;2023-03-14T02:00:21;12.30;97.80
52189;DHT22;38162;45.926;13.608;2023-03-14T02:02:49;12.30;97.70
52189;DHT22;38162;45.926;13.608;2023-03-14T02:05:18;12.40;97.70
52189;DHT22;38162;45.926;13.608;2023-03-14T02:07:49;12.30;97.70
52189;DHT22;38162;45.926;13.608;2023-03-14T02:10:17;12.30;97.80
52189;DHT22;38162;45.926;13.608;2023-03-14T02:12:47;12.30;97.80
52189;DHT22;38162;45.926;13.608;2023-03-14T02:15:13;12.30;97.90
52189;DHT22;38162;45.926;13.608;2023-03-14T02:17:41;12.30;97.90
52189;DHT22;38162;45.926;13.608;2023-03-14T02:20:53;12.30;98.00
52189;DHT22;38162;45.926;13.608;2023-03-14T02:22:59;12.30;98.00
52189;DHT22;38162;45.926;13.608;2023-03-14T02:25:31;12.30;98.40
52189;DHT22;38162;45.926;13.608;2023-03-14T02:28:00;12.30;98.20
52189;DHT22;38162;45.926;13.608;2023-03-14T02:30:28;12.20;98.30
52189;DHT22;38162;45.926;13.608;2023-03-14T02:33:24;12.30;98.50
52189;DHT22;38162;45.926;13.608;2023-03-14T02:35:59;12.30;98.60
52189;DHT22;38162;45.926;13.608;2023-03-14T02:41:07;12.30;98.60
52189;DHT22;38162;45.926;13.608;2023-03-14T02:43:33;12.20;98.70
52189;DHT22;38162;45.926;13.608;2023-03-14T02:46:00;12.30;98.70
52189;DHT22;38162;45.926;13.608;2023-03-14T02:48:28;12.30;98.80
52189;DHT22;38162;45.926;13.608;2023-03-14T02:50:57;12.20;98.80
52189;DHT22;38162;45.926;13.608;2023-03-14T02:53:33;12.30;99.00
52189;DHT22;38162;45.926;13.608;2023-03-14T02:56:00;12.30;99.00
52189;DHT22;38162;45.926;13.608;2023-03-14T02:58:26;12.30;99.10
52189;DHT22;38162;45.926;13.608;2023-03-14T03:00:52;12.30;99.20
52189;DHT22;38162;45.926;13.608;2023-03-14T03:03:18;12.30;99.30
52189;DHT22;38162;45.926;13.608;2023-03-14T03:05:51;12.30;99.50
52189;DHT22;38162;45.926;13.608;2023-03-14T03:08:19;12.20;99.50
52189;DHT22;38162;45.926;13.608;2023-03-14T03:10:44;12.30;99.70
52189;DHT22;38162;45.926;13.608;2023-03-14T03:13:10;12.30;99.70
52189;DHT22;38162;45.926;13.608;2023-03-14T03:15:36;12.30;99.70
52189;DHT22;38162;45.926;13.608;2023-03-14T03:18:02;12.20;99.60
52189;DHT22;38162;45.926;13.608;2023-03-14T03:20:27;12.30;99.60
52189;DHT22;38162;45.926;13.608;2023-03-14T03:22:53;12.20;99.40
52189;DHT22;38162;45.926;13.608;2023-03-14T03:25:19;12.20;99.30
52189;DHT22;38162;45.926;13.608;2023-03-14T03:27:44;12.20;99.30
52189;DHT22;38162;45.926;13.608;2023-03-14T03:30:10;12.20;99.40
52189;DHT22;38162;45.926;13.608;2023-03-14T03:32:36;12.20;99.50
52189;DHT22;38162;45.926;13.608;2023-03-14T03:35:03;12.20;99.40
52189;DHT22;38162;45.926;13.608;2023-03-14T03:37:33;12.20;99.50
52189;DHT22;38162;45.926;13.608;2023-03-14T03:39:59;12.20;99.40
52189;DHT22;38162;45.926;13.608;2023-03-14T03:42:26;12.20;99.30
52189;DHT22;38162;45.926;13.608;2023-03-14T03:44:52;12.20;99.20
52189;DHT22;38162;45.926;13.608;2023-03-14T03:47:18;12.20;99.00
52189;DHT22;38162;45.926;13.608;2023-03-14T03:49:43;12.20;99.00
52189;DHT22;38162;45.926;13.608;2023-03-14T03:52:09;12.20;98.90
52189;DHT22;38162;45.926;13.608;2023-03-14T03:54:35;12.20;98.80
52189;DHT22;38162;45.926;13.608;2023-03-14T03:57:01;12.20;98.70
52189;DHT22;38162;45.926;13.608;2023-03-14T03:59:27;12.20;98.70
52189;DHT22;38162;45.926;13.608;2023-03-14T04:01:52;12.20;98.70
52189;DHT22;38162;45.926;13.608;2023-03-14T04:04:18;12.20;98.70
52189;DHT22;38162;45.926;13.608;2023-03-14T04:06:44;12.20;98.70
52189;DHT22;38162;45.926;13.608;2023-03-14T04:09:10;12.20;98.80
52189;DHT22;38162;45.926;13.608;2023-03-14T04:11:36;12.20;98.80
52189;DHT22;38162;45.926;13.608;2023-03-14T04:14:03;12.20;98.80
52189;DHT22;38162;45.926;13.608;2023-03-14T04:16:29;12.20;98.90
52189;DHT22;38162;45.926;13.608;2023-03-14T04:18:57;12.20;99.00
52189;DHT22;38162;45.926;13.608;2023-03-14T04:21:22;12.20;98.90
52189;DHT22;38162;45.926;13.608;2023-03-14T04:23:48;12.30;98.90
52189;DHT22;38162;45.926;13.608;2023-03-14T04:26:14;12.30;98.90
52189;DHT22;38162;45.926;13.608;2023-03-14T04:28:39;12.30;98.80
52189;DHT22;38162;45.926;13.608;2023-03-14T04:31:17;12.30;98.70
52189;DHT22;38162;45.926;13.608;2023-03-14T04:33:44;12.30;98.60
52189;DHT22;38162;45.926;13.608;2023-03-14T04:36:10;12.30;98.60
52189;DHT22;38162;45.926;13.608;2023-03-14T04:38:36;12.40;98.60
52189;DHT22;38162;45.926;13.608;2023-03-14T04:41:02;12.40;98.70
52189;DHT22;38162;45.926;13.608;2023-03-14T04:43:28;12.40;98.60
52189;DHT22;38162;45.926;13.608;2023-03-14T04:45:54;12.40;98.60
52189;DHT22;38162;45.926;13.608;2023-03-14T04:48:20;12.50;98.50
52189;DHT22;38162;45.926;13.608;2023-03-14T04:50:47;12.60;98.40
52189;DHT22;38162;45.926;13.608;2023-03-14T04:53:14;12.60;98.30
52189;DHT22;38162;45.926;13.608;2023-03-14T04:55:39;12.60;98.10
52189;DHT22;38162;45.926;13.608;2023-03-14T04:58:05;12.60;98.00
52189;DHT22;38162;45.926;13.608;2023-03-14T05:00:31;12.50;97.80
52189;DHT22;38162;45.926;13.608;2023-03-14T05:02:57;12.70;97.80
52189;DHT22;38162;45.926;13.608;2023-03-14T05:05:23;12.70;97.80
52189;DHT22;38162;45.926;13.608;2023-03-14T05:07:49;12.70;97.80
52189;DHT22;38162;45.926;13.608;2023-03-14T05:10:15;12.70;98.00
52189;DHT22;38162;45.926;13.608;2023-03-14T05:12:40;12.80;97.80
52189;DHT22;38162;45.926;13.608;2023-03-14T05:15:07;12.80;97.60
52189;DHT22;38162;45.926;13.608;2023-03-14T05:17:33;12.80;97.50
52189;DHT22;38162;45.926;13.608;2023-03-14T05:19:59;12.90;97.50
52189;DHT22;38162;45.926;13.608;2023-03-14T05:22:24;12.90;97.70
52189;DHT22;38162;45.926;13.608;2023-03-14T05:24:50;12.90;97.70
52189;DHT22;38162;45.926;13.608;2023-03-14T05:27:16;12.90;97.70
52189;DHT22;38162;45.926;13.608;2023-03-14T05:29:42;12.90;97.70
52189;DHT22;38162;45.926;13.608;2023-03-14T05:32:07;12.90;97.70
52189;DHT22;38162;45.926;13.608;2023-03-14T05:34:33;12.90;97.80
52189;DHT22;38162;45.926;13.608;2023-03-14T05:36:59;12.90;98.00
52189;DHT22;38162;45.926;13.608;2023-03-14T05:39:24;12.90;98.10
52189;DHT22;38162;45.926;13.608;2023-03-14T05:41:50;12.90;98.20
52189;DHT22;38162;45.926;13.608;2023-03-14T05:44:16;12.90;98.30
52189;DHT22;38162;45.926;13.608;2023-03-14T05:46:42;12.80;98.40
52189;DHT22;38162;45.926;13.608;2023-03-14T05:49:08;12.80;98.50
52189;DHT22;38162;45.926;13.608;2023-03-14T05:51:33;12.80;98.60
52189;DHT22;38162;45.926;13.608;2023-03-14T05:53:59;12.70;98.70
52189;DHT22;38162;45.926;13.608;2023-03-14T05:56:25;12.70;98.70
52189;DHT22;38162;45.926;13.608;2023-03-14T05:58:50;12.70;98.90
52189;DHT22;38162;45.926;13.608;2023-03-14T06:01:16;12.70;99.10
52189;DHT22;38162;45.926;13.608;2023-03-14T06:03:42;12.70;99.20
52189;DHT22;38162;45.926;13.608;2023-03-14T06:06:07;12.60;99.30
52189;DHT22;38162;45.926;13.608;2023-03-14T06:08:33;12.60;99.30
52189;DHT22;38162;45.926;13.608;2023-03-14T06:11:02;12.60;99.20
52189;DHT22;38162;45.926;13.608;2023-03-14T06:13:27;12.60;99.10
52189;DHT22;38162;45.926;13.608;2023-03-14T06:15:53;12.60;98.90
52189;DHT22;38162;45.926;13.608;2023-03-14T06:18:19;12.70;99.00
52189;DHT22;38162;45.926;13.608;2023-03-14T06:20:45;12.70;98.90
52189;DHT22;38162;45.926;13.608;2023-03-14T06:23:11;12.60;98.90
52189;DHT22;38162;45.926;13.608;2023-03-14T06:25:36;12.70;99.00
52189;DHT22;38162;45.926;13.608;2023-03-14T06:28:02;12.60;99.10
52189;DHT22;38162;45.926;13.608;2023-03-14T06:30:28;12.60;99.20
52189;DHT22;38162;45.926;13.608;2023-03-14T06:32:54;12.60;99.20
52189;DHT22;38162;45.926;13.608;2023-03-14T06:35:21;12.60;99.30
52189;DHT22;38162;45.926;13.608;2023-03-14T06:37:47;12.60;99.30
52189;DHT22;38162;45.926;13.608;2023-03-14T06:40:13;12.60;99.30
52189;DHT22;38162;45.926;13.608;2023-03-14T06:42:44;12.60;99.20
52189;DHT22;38162;45.926;13.608;2023-03-14T06:45:10;12.60;99.20
52189;DHT22;38162;45.926;13.608;2023-03-14T06:47:36;12.70;99.10
52189;DHT22;38162;45.926;13.608;2023-03-14T06:50:04;12.70;99.00
52189;DHT22;38162;45.926;13.608;2023-03-14T06:52:30;12.70;98.70
52189;DHT22;38162;45.926;13.608;2023-03-14T06:54:56;12.70;98.50
52189;DHT22;38162;45.926;13.608;2023-03-14T06:57:21;12.80;98.50
52189;DHT22;38162;45.926;13.608;2023-03-14T06:59:47;12.80;98.30
52189;DHT22;38162;45.926;13.608;2023-03-14T07:02:13;12.80;98.30
52189;DHT22;38162;45.926;13.608;2023-03-14T07:04:39;12.80;98.40
52189;DHT22;38162;45.926;13.608;2023-03-14T07:07:05;12.80;98.60
52189;DHT22;38162;45.926;13.608;2023-03-14T07:09:31;12.70;98.70
52189;DHT22;38162;45.926;13.608;2023-03-14T07:11:57;12.70;98.90
52189;DHT22;38162;45.926;13.608;2023-03-14T07:14:23;12.70;98.70
52189;DHT22;38162;45.926;13.608;2023-03-14T07:16:48;12.70;98.60
52189;DHT22;38162;45.926;13.608;2023-03-14T07:19:14;12.70;98.70
52189;DHT22;38162;45.926;13.608;2023-03-14T07:21:40;12.70;98.50
52189;DHT22;38162;45.926;13.608;2023-03-14T07:24:05;12.70;98.10
52189;DHT22;38162;45.926;13.608;2023-03-14T07:26:31;12.70;98.00
52189;DHT22;38162;45.926;13.608;2023-03-14T07:28:57;12.70;98.20
52189;DHT22;38162;45.926;13.608;2023-03-14T07:31:22;12.70;98.00
52189;DHT22;38162;45.926;13.608;2023-03-14T07:33:48;12.70;98.00
52189;DHT22;38162;45.926;13.608;2023-03-14T07:36:14;12.80;98.10
52189;DHT22;38162;45.926;13.608;2023-03-14T07:38:40;12.70;97.90
52189;DHT22;38162;45.926;13.608;2023-03-14T07:41:06;12.80;97.90
52189;DHT22;38162;45.926;13.608;2023-03-14T07:43:32;12.80;97.80
52189;DHT22;38162;45.926;13.608;2023-03-14T07:45:58;12.80;97.60
52189;DHT22;38162;45.926;13.608;2023-03-14T07:48:24;12.80;97.60
52189;DHT22;38162;45.926;13.608;2023-03-14T07:50:54;12.80;97.70
52189;DHT22;38162;45.926;13.608;2023-03-14T07:53:20;12.80;97.90
52189;DHT22;38162;45.926;13.608;2023-03-14T07:55:46;12.80;97.80
52189;DHT22;38162;45.926;13.608;2023-03-14T07:58:13;12.80;97.80
52189;DHT22;38162;45.926;13.608;2023-03-14T08:00:39;12.80;97.80
52189;DHT22;38162;45.926;13.608;2023-03-14T08:03:05;12.80;97.70
52189;DHT22;38162;45.926;13.608;2023-03-14T08:05:30;12.80;97.70
52189;DHT22;38162;45.926;13.608;2023-03-14T08:07:56;12.80;97.70
52189;DHT22;38162;45.926;13.608;2023-03-14T08:10:22;12.80;97.80
52189;DHT22;38162;45.926;13.608;2023-03-14T08:12:53;12.80;98.00
52189;DHT22;38162;45.926;13.608;2023-03-14T08:15:20;12.80;98.00
52189;DHT22;38162;45.926;13.608;2023-03-14T08:17:45;12.80;98.30
52189;DHT22;38162;45.926;13.608;2023-03-14T08:20:16;12.80;98.40
52189;DHT22;38162;45.926;13.608;2023-03-14T08:22:42;12.70;98.50
52189;DHT22;38162;45.926;13.608;2023-03-14T08:25:08;12.70;98.60
52189;DHT22;38162;45.926;13.608;2023-03-14T08:27:33;12.70;98.70
52189;DHT22;38162;45.926;13.608;2023-03-14T08:29:59;12.70;98.80
52189;DHT22;38162;45.926;13.608;2023-03-14T08:32:25;12.70;98.90
52189;DHT22;38162;45.926;13.608;2023-03-14T08:34:50;12.70;98.90
52189;DHT22;38162;45.926;13.608;2023-03-14T08:37:16;12.70;98.90
52189;DHT22;38162;45.926;13.608;2023-03-14T08:39:42;12.70;98.70
52189;DHT22;38162;45.926;13.608;2023-03-14T08:42:07;12.70;98.60
52189;DHT22;38162;45.926;13.608;2023-03-14T08:44:33;12.80;99.90
52189;DHT22;38162;45.926;13.608;2023-03-14T08:46:58;12.80;99.90
52189;DHT22;38162;45.926;13.608;2023-03-14T08:49:24;12.80;99.90
52189;DHT22;38162;45.926;13.608;2023-03-14T08:51:50;12.80;99.90
52189;DHT22;38162;45.926;13.608;2023-03-14T08:54:15;12.80;99.90
52189;DHT22;38162;45.926;13.608;2023-03-14T08:56:41;12.80;99.90
52189;DHT22;38162;45.926;13.608;2023-03-14T08:59:07;12.80;99.90
52189;DHT22;38162;45.926;13.608;2023-03-14T09:01:33;12.80;99.90
52189;DHT22;38162;45.926;13.608;2023-03-14T09:03:59;12.80;99.90
52189;DHT22;38162;45.926;13.608;2023-03-14T09:06:24;12.80;99.90
52189;DHT22;38162;45.926;13.608;2023-03-14T09:08:50;12.80;99.90
52189;DHT22;38162;45.926;13.608;2023-03-14T09:11:16;12.80;99.90
52189;DHT22;38162;45.926;13.608;2023-03-14T09:13:43;12.80;99.90
52189;DHT22;38162;45.926;13.608;2023-03-14T09:16:09;12.80;99.90
52189;DHT22;38162;45.926;13.608;2023-03-14T09:18:35;12.80;99.90
52189;DHT22;38162;45.926;13.608;2023-03-14T09:21:00;12.80;99.90
52189;DHT22;38162;45.926;13.608;2023-03-14T09:23:27;12.90;99.90
52189;DHT22;38162;45.926;13.608;2023-03-14T09:25:57;12.90;99.90
52189;DHT22;38162;45.926;13.608;2023-03-14T09:28:23;12.90;99.90
52189;DHT22;38162;45.926;13.608;2023-03-14T09:30:49;12.90;99.90
52189;DHT22;38162;45.926;13.608;2023-03-14T09:33:16;13.00;99.90
52189;DHT22;38162;45.926;13.608;2023-03-14T09:35:41;13.00;99.90
52189;DHT22;38162;45.926;13.608;2023-03-14T09:38:07;13.00;99.90
52189;DHT22;38162;45.926;13.608;2023-03-14T09:40:36;13.00;99.90
52189;DHT22;38162;45.926;13.608;2023-03-14T09:43:04;13.00;99.90
52189;DHT22;38162;45.926;13.608;2023-03-14T09:47:59;13.10;99.90
52189;DHT22;38162;45.926;13.608;2023-03-14T09:50:26;13.00;99.90
52189;DHT22;38162;45.926;13.608;2023-03-14T09:53:02;13.00;99.90
52189;DHT22;38162;45.926;13.608;2023-03-14T09:55:28;13.10;99.90
52189;DHT22;38162;45.926;13.608;2023-03-14T09:57:58;13.00;99.90
52189;DHT22;38162;45.926;13.608;2023-03-14T10:00:30;13.10;99.90
52189;DHT22;38162;45.926;13.608;2023-03-14T10:03:04;13.10;99.90
52189;DHT22;38162;45.926;13.608;2023-03-14T10:05:39;13.10;99.90
52189;DHT22;38162;45.926;13.608;2023-03-14T10:08:04;13.00;99.90
52189;DHT22;38162;45.926;13.608;2023-03-14T10:10:31;13.00;99.90
52189;DHT22;38162;45.926;13.608;2023-03-14T10:15:38;13.10;99.90
52189;DHT22;38162;45.926;13.608;2023-03-14T10:18:13;13.00;99.90
52189;DHT22;38162;45.926;13.608;2023-03-14T10:20:41;13.00;99.90
52189;DHT22;38162;45.926;13.608;2023-03-14T10:25:45;13.00;99.90
52189;DHT22;38162;45.926;13.608;2023-03-14T10:28:29;13.00;99.90
52189;DHT22;38162;45.926;13.608;2023-03-14T10:30:57;13.00;99.90
52189;DHT22;38162;45.926;13.608;2023-03-14T10:33:25;13.00;99.90
52189;DHT22;38162;45.926;13.608;2023-03-14T10:35:55;12.90;99.90
52189;DHT22;38162;45.926;13.608;2023-03-14T10:38:23;13.00;99.90
52189;DHT22;38162;45.926;13.608;2023-03-14T10:40:51;12.90;99.90
52189;DHT22;38162;45.926;13.608;2023-03-14T10:43:34;12.90;99.90
52189;DHT22;38162;45.926;13.608;2023-03-14T10:46:15;12.90;99.90
52189;DHT22;38162;45.926;13.608;2023-03-14T10:48:41;12.90;99.90
52189;DHT22;38162;45.926;13.608;2023-03-14T10:51:08;12.90;99.90
52189;DHT22;38162;45.926;13.608;2023-03-14T10:56:18;12.90;99.90
52189;DHT22;38162;45.926;13.608;2023-03-14T10:58:46;12.90;99.90
52189;DHT22;38162;45.926;13.608;2023-03-14T11:01:23;12.90;99.90
52189;DHT22;38162;45.926;13.608;2023-03-14T11:06:39;12.90;99.90
52189;DHT22;38162;45.926;13.608;2023-03-14T11:09:24;12.90;99.90
52189;DHT22;38162;45.926;13.608;2023-03-14T11:11:53;12.80;99.90
52189;DHT22;38162;45.926;13.608;2023-03-14T11:14:29;12.80;99.90
52189;DHT22;38162;45.926;13.608;2023-03-14T11:17:25;12.80;99.90
52189;DHT22;38162;45.926;13.608;2023-03-14T11:25:43;12.80;99.90
52189;DHT22;38162;45.926;13.608;2023-03-14T11:28:24;12.80;99.90
52189;DHT22;38162;45.926;13.608;2023-03-14T11:30:54;12.70;99.90
52189;DHT22;38162;45.926;13.608;2023-03-14T11:33:27;12.70;99.90
52189;DHT22;38162;45.926;13.608;2023-03-14T11:36:07;12.70;99.90
52189;DHT22;38162;45.926;13.608;2023-03-14T11:41:32;12.70;99.90
52189;DHT22;38162;45.926;13.608;2023-03-14T11:44:03;12.70;99.90
52189;DHT22;38162;45.926;13.608;2023-03-14T11:46:41;12.70;99.90
52189;DHT22;38162;45.926;13.608;2023-03-14T11:49:36;12.70;99.90
52189;DHT22;38162;45.926;13.608;2023-03-14T11:52:14;12.70;99.90
52189;DHT22;38162;45.926;13.608;2023-03-14T11:54:46;12.70;99.90
52189;DHT22;38162;45.926;13.608;2023-03-14T11:57:17;12.70;99.90
52189;DHT22;38162;45.926;13.608;2023-03-14T12:00:16;12.70;99.90
52189;DHT22;38162;45.926;13.608;2023-03-14T12:08:13;12.60;99.90
52189;DHT22;38162;45.926;13.608;2023-03-14T12:10:52;12.60;99.90
52189;DHT22;38162;45.926;13.608;2023-03-14T12:13:19;12.60;99.90
52189;DHT22;38162;45.926;13.608;2023-03-14T12:15:54;12.60;99.90
52189;DHT22;38162;45.926;13.608;2023-03-14T12:18:33;12.60;99.90
52189;DHT22;38162;45.926;13.608;2023-03-14T12:21:05;12.50;99.90
52189;DHT22;38162;45.926;13.608;2023-03-14T12:23:55;12.60;99.90
52189;DHT22;38162;45.926;13.608;2023-03-14T12:26:24;12.60;99.90
52189;DHT22;38162;45.926;13.608;2023-03-14T12:28:51;12.60;99.90
52189;DHT22;38162;45.926;13.608;2023-03-14T12:42:05;12.60;99.90
52189;DHT22;38162;45.926;13.608;2023-03-14T12:49:48;12.60;99.90
52189;DHT22;38162;45.926;13.608;2023-03-14T12:52:29;12.60;99.90
52189;DHT22;38162;45.926;13.608;2023-03-14T12:55:18;12.60;99.90
52189;DHT22;38162;45.926;13.608;2023-03-14T13:00:33;12.60;99.90
52189;DHT22;38162;45.926;13.608;2023-03-14T13:05:55;12.60;99.90
52189;DHT22;38162;45.926;13.608;2023-03-14T13:08:39;12.60;99.90
52189;DHT22;38162;45.926;13.608;2023-03-14T13:11:16;12.50;99.90
52189;DHT22;38162;45.926;13.608;2023-03-14T13:13:49;12.60;99.90
52189;DHT22;38162;45.926;13.608;2023-03-14T13:16:20;12.50;99.90
52189;DHT22;38162;45.926;13.608;2023-03-14T13:18:48;12.50;99.90
52189;DHT22;38162;45.926;13.608;2023-03-14T13:21:18;12.50;99.90
52189;DHT22;38162;45.926;13.608;2023-03-14T13:24:17;12.60;99.90
52189;DHT22;38162;45.926;13.608;2023-03-14T13:26:44;12.60;99.90
52189;DHT22;38162;45.926;13.608;2023-03-14T13:31:47;12.60;99.90
52189;DHT22;38162;45.926;13.608;2023-03-14T13:34:13;12.60;99.90
52189;DHT22;38162;45.926;13.608;2023-03-14T13:36:38;12.60;99.90
52189;DHT22;38162;45.926;13.608;2023-03-14T13:39:10;12.60;99.90
52189;DHT22;38162;45.926;13.608;2023-03-14T13:41:39;12.70;99.90
52189;DHT22;38162;45.926;13.608;2023-03-14T13:44:18;12.70;99.90
52189;DHT22;38162;45.926;13.608;2023-03-14T13:46:47;12.70;99.90
52189;DHT22;38162;45.926;13.608;2023-03-14T13:49:23;12.70;99.90
52189;DHT22;38162;45.926;13.608;2023-03-14T13:51:49;12.70;99.90
52189;DHT22;38162;45.926;13.608;2023-03-14T13:54:17;12.70;99.90
52189;DHT22;38162;45.926;13.608;2023-03-14T13:56:44;12.70;99.90
52189;DHT22;38162;45.926;13.608;2023-03-14T13:59:31;12.70;99.90
52189;DHT22;38162;45.926;13.608;2023-03-14T14:02:00;12.70;99.90
52189;DHT22;38162;45.926;13.608;2023-03-14T14:04:29;12.70;99.90
52189;DHT22;38162;45.926;13.608;2023-03-14T14:06:59;12.70;99.90
52189;DHT22;38162;45.926;13.608;2023-03-14T14:09:52;12.60;99.90
52189;DHT22;38162;45.926;13.608;2023-03-14T14:12:29;12.60;99.90
52189;DHT22;38162;45.926;13.608;2023-03-14T14:15:13;12.60;99.90
52189;DHT22;38162;45.926;13.608;2023-03-14T14:17:50;12.60;99.90
52189;DHT22;38162;45.926;13.608;2023-03-14T14:20:29;12.60;99.90
52189;DHT22;38162;45.926;13.608;2023-03-14T14:22:59;12.60;99.90
52189;DHT22;38162;45.926;13.608;2023-03-14T14:25:26;12.60;99.90
52189;DHT22;38162;45.926;13.608;2023-03-14T14:27:52;12.60;99.90
52189;DHT22;38162;45.926;13.608;2023-03-14T14:32:44;12.60;99.90
52189;DHT22;38162;45.926;13.608;2023-03-14T14:35:39;12.60;99.90
52189;DHT22;38162;45.926;13.608;2023-03-14T14:38:12;12.60;99.90
52189;DHT22;38162;45.926;13.608;2023-03-14T14:40:46;12.60;99.90
52189;DHT22;38162;45.926;13.608;2023-03-14T14:43:17;12.50;99.90
52189;DHT22;38162;45.926;13.608;2023-03-14T14:45:45;12.50;99.90
52189;DHT22;38162;45.926;13.608;2023-03-14T14:48:13;12.50;99.90
52189;DHT22;38162;45.926;13.608;2023-03-14T14:53:29;12.50;99.90
52189;DHT22;38162;45.926;13.608;2023-03-14T14:55:59;12.40;99.90
52189;DHT22;38162;45.926;13.608;2023-03-14T14:58:28;12.50;99.90
52189;DHT22;38162;45.926;13.608;2023-03-14T15:01:02;12.50;99.90
52189;DHT22;38162;45.926;13.608;2023-03-14T15:03:31;12.50;99.90
52189;DHT22;38162;45.926;13.608;2023-03-14T15:05:57;12.50;99.90
52189;DHT22;38162;45.926;13.608;2023-03-14T15:08:25;12.40;99.90
52189;DHT22;38162;45.926;13.608;2023-03-14T15:10:51;12.40;99.90
52189;DHT22;38162;45.926;13.608;2023-03-14T15:13:17;12.40;99.90
52189;DHT22;38162;45.926;13.608;2023-03-14T15:15:43;12.40;99.90
52189;DHT22;38162;45.926;13.608;2023-03-14T15:18:17;12.40;99.90
52189;DHT22;38162;45.926;13.608;2023-03-14T15:20:44;12.40;99.90
52189;DHT22;38162;45.926;13.608;2023-03-14T15:23:15;12.40;99.90
52189;DHT22;38162;45.926;13.608;2023-03-14T15:25:41;12.40;99.90
52189;DHT22;38162;45.926;13.608;2023-03-14T15:28:21;12.40;99.90
52189;DHT22;38162;45.926;13.608;2023-03-14T15:30:52;12.40;99.90
52189;DHT22;38162;45.926;13.608;2023-03-14T15:33:19;12.40;99.90
52189;DHT22;38162;45.926;13.608;2023-03-14T15:35:47;12.40;99.90
52189;DHT22;38162;45.926;13.608;2023-03-14T15:38:16;12.50;99.90
52189;DHT22;38162;45.926;13.608;2023-03-14T15:40:42;12.40;99.90
52189;DHT22;38162;45.926;13.608;2023-03-14T15:43:08;12.50;99.90
52189;DHT22;38162;45.926;13.608;2023-03-14T15:45:34;12.50;99.90
52189;DHT22;38162;45.926;13.608;2023-03-14T15:48:00;12.50;99.90
52189;DHT22;38162;45.926;13.608;2023-03-14T15:50:26;12.50;99.90
52189;DHT22;38162;45.926;13.608;2023-03-14T15:52:52;12.50;99.90
52189;DHT22;38162;45.926;13.608;2023-03-14T15:55:18;12.40;99.90
52189;DHT22;38162;45.926;13.608;2023-03-14T15:57:44;12.50;99.90
52189;DHT22;38162;45.926;13.608;2023-03-14T16:00:16;12.50;99.90
52189;DHT22;38162;45.926;13.608;2023-03-14T16:02:43;12.50;99.90
52189;DHT22;38162;45.926;13.608;2023-03-14T16:05:11;12.50;99.90
52189;DHT22;38162;45.926;13.608;2023-03-14T16:07:37;12.50;99.90
52189;DHT22;38162;45.926;13.608;2023-03-14T16:10:04;12.50;99.90
52189;DHT22;38162;45.926;13.608;2023-03-14T16:12:31;12.50;99.90
52189;DHT22;38162;45.926;13.608;2023-03-14T16:14:57;12.50;99.90
52189;DHT22;38162;45.926;13.608;2023-03-14T16:17:24;12.50;99.90
52189;DHT22;38162;45.926;13.608;2023-03-14T16:19:50;12.50;99.90
52189;DHT22;38162;45.926;13.608;2023-03-14T16:22:15;12.50;99.90
52189;DHT22;38162;45.926;13.608;2023-03-14T16:24:41;12.50;99.90